createdAt,value
2018-06-27T00:00:20.766Z,14.83
2018-06-27T00:02:51.300Z,14.85
2018-06-27T00:05:21.224Z,14.86
2018-06-27T00:07:51.853Z,14.87
2018-06-27T00:10:23.456Z,14.85
2018-06-27T00:12:55.117Z,14.82
2018-06-27T00:15:24.291Z,14.76
2018-06-27T00:17:54.626Z,14.69
2018-06-27T00:20:23.866Z,14.64
2018-06-27T00:22:54.195Z,14.60
2018-06-27T00:25:24.747Z,14.57
2018-06-27T00:27:54.985Z,14.53
2018-06-27T00:30:26.270Z,14.50
2018-06-27T00:32:57.826Z,14.48
2018-06-27T00:35:27.745Z,14.45
2018-06-27T00:37:59.579Z,14.42
2018-06-27T00:40:30.999Z,14.39
2018-06-27T00:43:02.689Z,14.38
2018-06-27T00:45:35.268Z,14.35
2018-06-27T00:48:04.791Z,14.30
2018-06-27T00:50:41.684Z,14.25
2018-06-27T00:53:11.432Z,14.22
2018-06-27T00:55:40.817Z,14.19
2018-06-27T00:58:12.831Z,14.16
2018-06-27T01:00:44.297Z,14.13
2018-06-27T01:03:16.732Z,14.09
2018-06-27T01:05:46.729Z,14.08
2018-06-27T01:08:17.471Z,14.05
2018-06-27T01:10:49.790Z,14.06
2018-06-27T01:13:19.506Z,14.05
2018-06-27T01:15:49.451Z,14.05
2018-06-27T01:18:19.845Z,14.10
2018-06-27T01:20:49.240Z,14.16
2018-06-27T01:23:19.971Z,14.20
2018-06-27T01:25:50.929Z,14.22
2018-06-27T01:28:22.718Z,14.22
2018-06-27T01:30:53.866Z,14.24
2018-06-27T01:33:23.056Z,14.25
2018-06-27T01:35:54.914Z,14.26
2018-06-27T01:38:24.833Z,14.28
2018-06-27T01:40:55.906Z,14.31
2018-06-27T01:43:27.525Z,14.34
2018-06-27T01:45:57.719Z,14.38
2018-06-27T01:48:27.410Z,14.42
2018-06-27T01:50:56.741Z,14.44
2018-06-27T01:53:27.608Z,14.42
2018-06-27T01:55:57.741Z,14.40
2018-06-27T01:58:29.772Z,14.38
2018-06-27T02:01:00.429Z,14.34
2018-06-27T02:03:29.882Z,14.29
2018-06-27T02:06:01.896Z,14.24
2018-06-27T02:08:31.483Z,14.20
2018-06-27T02:11:02.580Z,14.17
2018-06-27T02:13:32.544Z,14.16
2018-06-27T02:16:04.391Z,14.15
2018-06-27T02:18:35.467Z,14.13
2018-06-27T02:21:04.748Z,14.13
2018-06-27T02:23:33.943Z,14.10
2018-06-27T02:26:05.451Z,14.07
2018-06-27T02:28:35.412Z,14.07
2018-06-27T02:31:07.305Z,14.06
2018-06-27T02:33:37.823Z,14.04
2018-06-27T02:36:07.837Z,14.03
2018-06-27T02:38:39.969Z,14.03
2018-06-27T02:41:09.489Z,14.01
2018-06-27T02:43:40.167Z,13.99
2018-06-27T02:46:10.771Z,13.96
2018-06-27T02:48:42.411Z,13.95
2018-06-27T02:51:12.375Z,13.94
2018-06-27T02:53:41.640Z,13.92
2018-06-27T02:56:13.268Z,13.91
2018-06-27T02:58:43.369Z,13.91
2018-06-27T03:01:15.099Z,13.91
2018-06-27T03:03:45.082Z,13.92
2018-06-27T03:06:15.194Z,13.92
2018-06-27T03:08:46.070Z,13.92
2018-06-27T03:11:16.119Z,13.92
2018-06-27T03:13:47.689Z,13.92
2018-06-27T03:16:19.193Z,13.93
2018-06-27T03:18:56.523Z,13.95
2018-06-27T03:21:26.266Z,13.97
2018-06-27T03:23:56.575Z,14.00
2018-06-27T03:26:28.518Z,14.04
2018-06-27T03:28:59.993Z,14.08
2018-06-27T03:31:29.455Z,14.12
2018-06-27T03:34:00.307Z,14.19
2018-06-27T03:36:31.162Z,14.25
2018-06-27T03:39:02.954Z,14.33
2018-06-27T03:41:34.877Z,14.40
2018-06-27T03:44:04.428Z,14.49
2018-06-27T03:46:36.295Z,14.56
2018-06-27T03:49:07.352Z,14.60
2018-06-27T03:51:38.912Z,14.68
2018-06-27T03:54:08.813Z,14.87
2018-06-27T03:56:38.275Z,15.25
2018-06-27T03:59:07.510Z,15.96
2018-06-27T04:01:38.970Z,16.50
2018-06-27T04:04:08.347Z,16.86
2018-06-27T04:06:40.662Z,17.17
2018-06-27T04:09:12.927Z,18.16
2018-06-27T04:11:44.916Z,19.06
2018-06-27T04:14:14.954Z,19.70
2018-06-27T04:16:45.245Z,19.83
2018-06-27T04:19:16.969Z,19.61
2018-06-27T04:21:47.480Z,19.82
2018-06-27T04:24:18.766Z,20.75
2018-06-27T04:26:48.721Z,21.78
2018-06-27T04:29:18.460Z,22.71
2018-06-27T04:31:51.115Z,23.45
2018-06-27T04:34:20.400Z,24.15
2018-06-27T04:36:50.640Z,24.91
2018-06-27T04:39:21.298Z,25.72
2018-06-27T04:41:51.716Z,26.60
2018-06-27T04:44:21.641Z,27.19
2018-06-27T04:46:53.095Z,27.57
2018-06-27T04:49:23.659Z,27.60
2018-06-27T04:51:52.926Z,27.77
2018-06-27T04:54:22.666Z,28.17
2018-06-27T04:56:53.425Z,28.77
2018-06-27T04:59:23.683Z,29.02
2018-06-27T05:01:55.369Z,29.07
2018-06-27T05:04:24.788Z,29.57
2018-06-27T05:06:57.252Z,29.90
2018-06-27T05:09:27.243Z,30.10
2018-06-27T05:11:57.951Z,30.52
2018-06-27T05:14:29.432Z,30.85
2018-06-27T05:17:00.068Z,31.27
2018-06-27T05:19:31.428Z,31.29
2018-06-27T05:22:00.696Z,30.95
2018-06-27T05:24:32.389Z,30.65
2018-06-27T05:27:01.726Z,30.47
2018-06-27T05:29:32.888Z,30.75
2018-06-27T05:32:03.480Z,31.20
2018-06-27T05:34:35.442Z,31.61
2018-06-27T05:37:08.536Z,32.28
2018-06-27T05:39:37.821Z,32.52
2018-06-27T05:42:09.771Z,32.69
2018-06-27T05:44:40.586Z,32.97
2018-06-27T05:47:12.965Z,33.30
2018-06-27T05:49:44.918Z,33.40
2018-06-27T05:52:14.227Z,33.64
2018-06-27T05:54:46.423Z,33.51
2018-06-27T05:57:17.358Z,33.17
2018-06-27T05:59:48.678Z,33.31
2018-06-27T06:02:20.357Z,33.73
2018-06-27T06:04:49.960Z,34.27
2018-06-27T06:07:22.064Z,34.40
2018-06-27T06:09:51.278Z,34.47
2018-06-27T06:12:23.006Z,34.64
2018-06-27T06:14:53.123Z,35.08
2018-06-27T06:17:25.259Z,35.66
2018-06-27T06:19:56.329Z,36.09
2018-06-27T06:22:27.156Z,36.47
2018-06-27T06:24:58.118Z,36.42
2018-06-27T06:27:27.467Z,35.79
2018-06-27T06:29:58.951Z,35.44
2018-06-27T06:32:28.263Z,35.41
2018-06-27T06:34:58.420Z,35.61
2018-06-27T06:37:28.286Z,36.12
2018-06-27T06:39:58.054Z,36.31
2018-06-27T06:42:28.460Z,36.46
2018-06-27T06:44:59.685Z,36.36
2018-06-27T06:47:30.755Z,36.40
2018-06-27T06:50:00.013Z,36.70
2018-06-27T06:52:31.685Z,36.48
2018-06-27T06:55:01.955Z,36.41
2018-06-27T06:57:32.158Z,36.13
2018-06-27T07:00:02.457Z,35.87
2018-06-27T07:02:34.283Z,36.11
2018-06-27T07:05:04.447Z,36.05
2018-06-27T07:07:33.649Z,35.95
2018-06-27T07:10:05.780Z,36.22
2018-06-27T07:12:36.374Z,36.38
2018-06-27T07:15:07.808Z,36.41
2018-06-27T07:17:38.854Z,36.65
2018-06-27T07:20:08.403Z,36.80
2018-06-27T07:22:38.825Z,36.39
2018-06-27T07:25:08.435Z,36.28
2018-06-27T07:27:39.132Z,36.69
2018-06-27T07:30:10.150Z,37.08
2018-06-27T07:32:42.182Z,36.83
2018-06-27T07:35:11.372Z,35.03
2018-06-27T07:37:40.659Z,34.06
2018-06-27T07:40:11.484Z,34.17
2018-06-27T07:42:43.189Z,34.40
2018-06-27T07:45:14.370Z,34.31
2018-06-27T07:47:43.551Z,34.39
2018-06-27T07:50:16.210Z,33.67
2018-06-27T07:52:46.076Z,33.48
2018-06-27T07:55:15.300Z,33.37
2018-06-27T07:57:45.263Z,33.56
2018-06-27T08:00:14.397Z,34.01
2018-06-27T08:02:43.592Z,35.06
2018-06-27T08:05:12.787Z,35.91
2018-06-27T08:07:41.947Z,36.07
2018-06-27T08:10:11.200Z,35.93
2018-06-27T08:12:40.501Z,35.66
2018-06-27T08:15:09.602Z,34.15
2018-06-27T08:17:38.766Z,32.73
2018-06-27T08:20:08.018Z,32.10
2018-06-27T08:22:37.226Z,32.37
2018-06-27T08:25:06.481Z,32.52
2018-06-27T08:27:35.661Z,32.76
2018-06-27T08:30:05.803Z,32.69
2018-06-27T08:32:34.937Z,32.20
2018-06-27T08:35:04.056Z,30.97
2018-06-27T08:37:33.145Z,30.13
2018-06-27T08:40:02.290Z,29.23
2018-06-27T08:42:31.436Z,28.37
2018-06-27T08:45:00.777Z,27.89
2018-06-27T08:47:29.921Z,28.17
2018-06-27T08:49:59.149Z,28.76
2018-06-27T08:52:28.297Z,28.66
2018-06-27T08:54:57.449Z,29.46
2018-06-27T08:57:26.594Z,30.55
2018-06-27T08:59:55.751Z,30.56
2018-06-27T09:02:24.890Z,31.17
2018-06-27T09:04:54.176Z,32.39
2018-06-27T09:07:23.314Z,33.00
2018-06-27T09:09:52.518Z,32.61
2018-06-27T09:12:21.861Z,32.77
2018-06-27T09:14:51.022Z,32.85
2018-06-27T09:17:20.181Z,32.72
2018-06-27T09:19:49.349Z,33.23
2018-06-27T09:22:18.474Z,32.64
2018-06-27T09:24:47.584Z,31.68
2018-06-27T09:27:16.711Z,31.24
2018-06-27T09:29:45.846Z,30.56
2018-06-27T09:32:14.967Z,30.40
2018-06-27T09:34:44.224Z,30.12
2018-06-27T09:37:13.507Z,29.43
2018-06-27T09:39:42.708Z,28.89
2018-06-27T09:42:11.921Z,28.23
2018-06-27T09:44:41.261Z,28.03
2018-06-27T09:47:12.570Z,28.38
2018-06-27T09:49:42.301Z,28.63
2018-06-27T09:52:11.614Z,29.63
2018-06-27T09:54:41.639Z,30.45
2018-06-27T09:57:12.697Z,31.46
2018-06-27T09:59:42.791Z,32.06
2018-06-27T10:02:12.934Z,32.65
2018-06-27T10:04:42.212Z,33.03
2018-06-27T10:07:11.434Z,32.95
2018-06-27T10:09:40.545Z,32.35
2018-06-27T10:12:09.689Z,31.46
2018-06-27T10:14:38.834Z,30.74
2018-06-27T10:17:07.982Z,30.29
2018-06-27T10:19:37.152Z,29.60
2018-06-27T10:22:06.542Z,28.88
2018-06-27T10:24:35.691Z,28.72
2018-06-27T10:27:05.104Z,29.61
2018-06-27T10:29:34.245Z,30.35
2018-06-27T10:32:03.422Z,30.35
2018-06-27T10:34:32.543Z,29.68
2018-06-27T10:37:01.710Z,28.97
2018-06-27T10:39:30.858Z,29.13
2018-06-27T10:42:00.013Z,29.80
2018-06-27T10:44:29.135Z,30.40
2018-06-27T10:46:58.418Z,30.95
2018-06-27T10:49:27.546Z,31.06
2018-06-27T10:51:56.687Z,30.77
2018-06-27T10:54:25.835Z,30.30
2018-06-27T10:56:55.197Z,29.72
2018-06-27T10:59:24.375Z,29.16
2018-06-27T11:01:53.959Z,28.66
2018-06-27T11:04:23.101Z,28.42
2018-06-27T11:06:52.232Z,28.49
2018-06-27T11:09:21.370Z,28.83
2018-06-27T11:11:50.590Z,28.81
2018-06-27T11:14:19.706Z,28.48
2018-06-27T11:16:48.850Z,28.16
2018-06-27T11:19:17.971Z,27.74
2018-06-27T11:21:47.153Z,27.41
2018-06-27T11:24:16.311Z,27.06
2018-06-27T11:26:45.451Z,26.78
2018-06-27T11:29:14.646Z,26.59
2018-06-27T11:31:43.764Z,26.66
2018-06-27T11:34:12.941Z,26.71
2018-06-27T11:36:42.121Z,26.62
2018-06-27T11:39:12.767Z,26.43
2018-06-27T11:41:42.790Z,26.30
2018-06-27T11:44:13.581Z,25.97
2018-06-27T11:46:42.738Z,25.68
2018-06-27T11:49:11.902Z,25.51
2018-06-27T11:51:41.033Z,25.39
2018-06-27T11:54:10.134Z,25.23
2018-06-27T11:56:39.264Z,25.08
2018-06-27T11:59:08.419Z,24.94
2018-06-27T12:01:37.566Z,24.88
2018-06-27T12:04:06.718Z,24.94
2018-06-27T12:06:35.874Z,25.02
2018-06-27T12:09:07.839Z,24.95
2018-06-27T12:11:37.003Z,24.93
2018-06-27T12:14:06.443Z,25.04
2018-06-27T12:16:35.659Z,25.20
2018-06-27T12:19:04.835Z,25.50
2018-06-27T12:21:34.078Z,25.79
2018-06-27T12:24:03.221Z,25.91
2018-06-27T12:26:32.427Z,25.89
2018-06-27T12:29:01.564Z,25.83
2018-06-27T12:31:30.700Z,25.77
2018-06-27T12:33:59.816Z,25.84
2018-06-27T12:36:28.929Z,26.00
2018-06-27T12:38:58.040Z,25.99
2018-06-27T12:41:27.216Z,26.04
2018-06-27T12:43:56.358Z,26.22
2018-06-27T12:46:25.488Z,26.36
2018-06-27T12:48:54.618Z,26.47
2018-06-27T12:51:23.826Z,26.57
2018-06-27T12:53:52.975Z,26.58
2018-06-27T12:56:22.186Z,26.55
2018-06-27T12:58:51.298Z,26.49
2018-06-27T13:01:20.497Z,26.37
2018-06-27T13:03:49.897Z,26.30
2018-06-27T13:06:19.074Z,26.24
2018-06-27T13:08:48.842Z,26.30
2018-06-27T13:11:18.116Z,26.34
2018-06-27T13:13:47.253Z,26.42
2018-06-27T13:16:16.379Z,26.44
2018-06-27T13:18:45.495Z,26.58
2018-06-27T13:21:14.673Z,26.63
2018-06-27T13:23:43.788Z,26.76
2018-06-27T13:26:12.921Z,26.87
2018-06-27T13:28:42.178Z,26.82
2018-06-27T13:31:11.306Z,26.59
2018-06-27T13:33:40.482Z,26.45
2018-06-27T13:36:09.665Z,26.27
2018-06-27T13:38:38.782Z,26.14
2018-06-27T13:41:07.944Z,25.98
2018-06-27T13:43:37.078Z,25.81
2018-06-27T13:46:06.392Z,25.80
2018-06-27T13:48:35.515Z,25.92
2018-06-27T13:51:04.636Z,26.06
2018-06-27T13:53:33.791Z,26.18
2018-06-27T13:56:02.960Z,26.26
2018-06-27T13:58:32.761Z,26.28
2018-06-27T14:01:02.122Z,26.29
2018-06-27T14:03:31.279Z,26.32
2018-06-27T14:06:00.445Z,26.28
2018-06-27T14:08:29.594Z,26.13
2018-06-27T14:10:58.745Z,26.02
2018-06-27T14:13:28.046Z,25.88
2018-06-27T14:15:57.222Z,25.73
2018-06-27T14:18:26.770Z,25.61
2018-06-27T14:20:55.932Z,25.67
2018-06-27T14:23:25.080Z,25.71
2018-06-27T14:25:54.244Z,25.72
2018-06-27T14:28:23.430Z,25.84
2018-06-27T14:30:52.638Z,25.79
2018-06-27T14:33:21.605Z,25.76
2018-06-27T14:35:50.787Z,25.82
2018-06-27T14:38:20.024Z,25.90
2018-06-27T14:40:49.223Z,25.93
2018-06-27T14:43:18.550Z,26.01
2018-06-27T14:45:47.769Z,26.13
2018-06-27T14:48:16.942Z,26.15
2018-06-27T14:50:46.213Z,26.13
2018-06-27T14:53:15.231Z,26.20
2018-06-27T14:55:44.386Z,26.20
2018-06-27T14:58:13.551Z,26.15
2018-06-27T15:00:42.765Z,26.16
2018-06-27T15:03:11.984Z,26.09
2018-06-27T15:05:41.512Z,25.93
2018-06-27T15:08:10.797Z,25.84
2018-06-27T15:10:40.338Z,25.78
2018-06-27T15:13:09.516Z,25.68
2018-06-27T15:15:38.664Z,25.58
2018-06-27T15:18:07.801Z,25.56
2018-06-27T15:20:36.978Z,25.52
2018-06-27T15:23:06.249Z,25.47
2018-06-27T15:25:35.680Z,25.41
2018-06-27T15:28:04.900Z,25.32
2018-06-27T15:30:34.061Z,25.14
2018-06-27T15:33:03.328Z,24.98
2018-06-27T15:35:32.541Z,24.91
2018-06-27T15:38:01.887Z,24.94
2018-06-27T15:40:31.239Z,25.00
2018-06-27T15:43:00.554Z,25.07
2018-06-27T15:45:29.802Z,25.17
2018-06-27T15:47:59.109Z,25.32
2018-06-27T15:50:28.395Z,25.53
2018-06-27T15:52:57.569Z,25.74
2018-06-27T15:55:26.714Z,25.83
2018-06-27T15:57:55.892Z,25.82
2018-06-27T16:00:25.051Z,25.78
2018-06-27T16:02:54.174Z,25.75
2018-06-27T16:05:23.301Z,25.67
2018-06-27T16:07:52.447Z,25.59
2018-06-27T16:10:22.111Z,25.71
2018-06-27T16:12:57.697Z,25.67
2018-06-27T16:15:26.839Z,25.69
2018-06-27T16:17:56.065Z,25.61
2018-06-27T16:20:25.292Z,25.55
2018-06-27T16:22:54.467Z,25.47
2018-06-27T16:25:23.635Z,25.41
2018-06-27T16:27:52.766Z,25.30
2018-06-27T16:30:21.899Z,25.15
2018-06-27T16:32:51.068Z,25.09
2018-06-27T16:35:20.327Z,25.05
2018-06-27T16:37:49.621Z,25.01
2018-06-27T16:40:18.801Z,25.03
2018-06-27T16:42:47.940Z,25.12
2018-06-27T16:45:17.118Z,25.28
2018-06-27T16:47:46.129Z,25.50
2018-06-27T16:50:15.464Z,25.69
2018-06-27T16:52:44.752Z,25.81
2018-06-27T16:55:14.164Z,25.87
2018-06-27T16:57:43.362Z,25.79
2018-06-27T17:00:12.534Z,25.78
2018-06-27T17:02:41.698Z,25.74
2018-06-27T17:05:10.842Z,25.61
2018-06-27T17:07:40.136Z,25.51
2018-06-27T17:10:09.279Z,25.46
2018-06-27T17:12:38.416Z,25.49
2018-06-27T17:15:07.655Z,25.52
2018-06-27T17:17:36.792Z,25.46
2018-06-27T17:20:06.292Z,25.42
2018-06-27T17:22:35.418Z,25.43
2018-06-27T17:25:04.590Z,25.31
2018-06-27T17:27:33.738Z,25.18
2018-06-27T17:30:02.890Z,25.06
2018-06-27T17:32:32.063Z,24.97
2018-06-27T17:35:01.205Z,24.90
2018-06-27T17:37:30.384Z,24.82
2018-06-27T17:39:59.508Z,24.72
2018-06-27T17:42:28.873Z,24.59
2018-06-27T17:44:58.026Z,24.47
2018-06-27T17:47:27.198Z,24.39
2018-06-27T17:49:56.430Z,24.33
2018-06-27T17:52:25.671Z,24.21
2018-06-27T17:54:54.825Z,24.06
2018-06-27T17:57:24.106Z,23.95
2018-06-27T17:59:53.392Z,23.85
2018-06-27T18:02:22.593Z,23.76
2018-06-27T18:04:51.934Z,23.71
2018-06-27T18:07:21.206Z,23.64
2018-06-27T18:09:50.488Z,23.59
2018-06-27T18:12:19.727Z,23.54
2018-06-27T18:14:48.950Z,23.49
2018-06-27T18:17:18.205Z,23.47
2018-06-27T18:19:48.424Z,23.47
2018-06-27T18:22:18.053Z,23.46
2018-06-27T18:24:47.219Z,23.45
2018-06-27T18:27:16.360Z,23.46
2018-06-27T18:29:45.551Z,23.46
2018-06-27T18:32:14.719Z,23.44
2018-06-27T18:34:43.643Z,23.40
2018-06-27T18:37:12.885Z,23.34
2018-06-27T18:39:42.214Z,23.26
2018-06-27T18:42:16.206Z,23.17
2018-06-27T18:44:45.454Z,23.07
2018-06-27T18:47:14.694Z,22.99
2018-06-27T18:49:43.904Z,22.91
2018-06-27T18:52:13.030Z,22.84
2018-06-27T18:54:42.237Z,22.74
2018-06-27T18:57:11.385Z,22.65
2018-06-27T18:59:40.602Z,22.55
2018-06-27T19:02:10.209Z,22.47
2018-06-27T19:04:39.382Z,22.40
2018-06-27T19:07:08.506Z,22.30
2018-06-27T19:09:37.642Z,22.22
2018-06-27T19:12:06.819Z,22.17
2018-06-27T19:14:36.038Z,22.10
2018-06-27T19:17:05.346Z,22.03
2018-06-27T19:19:34.497Z,21.96
2018-06-27T19:22:03.879Z,21.87
2018-06-27T19:24:33.004Z,21.75
2018-06-27T19:27:02.235Z,21.66
2018-06-27T19:29:31.387Z,21.59
2018-06-27T19:32:00.535Z,21.52
2018-06-27T19:34:29.669Z,21.46
2018-06-27T19:36:58.906Z,21.43
2018-06-27T19:39:37.465Z,21.42
2018-06-27T19:41:57.181Z,21.42
2018-06-27T19:44:26.408Z,21.40
2018-06-27T19:46:55.562Z,21.35
2018-06-27T19:49:24.727Z,21.33
2018-06-27T19:51:53.915Z,21.32
2018-06-27T19:54:23.103Z,21.28
2018-06-27T19:56:52.224Z,21.26
2018-06-27T19:59:21.427Z,21.23
2018-06-27T20:01:52.903Z,21.18
2018-06-27T20:04:22.660Z,21.12
2018-06-27T20:06:52.978Z,21.06
2018-06-27T20:09:23.310Z,21.01
2018-06-27T20:11:54.847Z,20.94
2018-06-27T20:14:27.338Z,20.87
2018-06-27T20:16:56.459Z,20.84
2018-06-27T20:19:28.225Z,20.80
2018-06-27T20:22:00.339Z,20.74
2018-06-27T20:24:31.792Z,20.68
2018-06-27T20:27:03.279Z,20.63
2018-06-27T20:29:32.513Z,20.57
2018-06-27T20:32:02.678Z,20.52
2018-06-27T20:34:32.757Z,20.49
2018-06-27T20:37:02.637Z,20.43
2018-06-27T20:39:32.520Z,20.37
2018-06-27T20:42:04.474Z,20.33
2018-06-27T20:44:36.397Z,20.27
2018-06-27T20:47:05.660Z,20.23
2018-06-27T20:49:36.698Z,20.20
2018-06-27T20:52:07.194Z,20.17
2018-06-27T20:54:39.136Z,20.14
2018-06-27T20:57:10.604Z,20.09
2018-06-27T20:59:39.779Z,20.04
2018-06-27T21:02:10.350Z,20.00
2018-06-27T21:04:40.202Z,19.96
2018-06-27T21:07:10.617Z,19.90
2018-06-27T21:09:42.242Z,19.87
2018-06-27T21:12:12.686Z,19.80
2018-06-27T21:14:44.193Z,19.75
2018-06-27T21:17:13.372Z,19.72
2018-06-27T21:19:44.279Z,19.68
2018-06-27T21:22:13.865Z,19.65
2018-06-27T21:24:44.808Z,19.57
2018-06-27T21:27:15.396Z,19.53
2018-06-27T21:29:47.100Z,19.51
2018-06-27T21:32:18.092Z,19.49
2018-06-27T21:34:47.328Z,19.47
2018-06-27T21:37:17.338Z,19.45
2018-06-27T21:39:47.487Z,19.42
2018-06-27T21:42:16.668Z,19.38
2018-06-27T21:44:48.606Z,19.34
2018-06-27T21:47:17.855Z,19.31
2018-06-27T21:49:49.908Z,19.27
2018-06-27T21:52:20.564Z,19.20
2018-06-27T21:54:52.421Z,19.17
2018-06-27T21:57:22.336Z,19.13
2018-06-27T21:59:51.562Z,19.13
2018-06-27T22:02:23.522Z,19.08
2018-06-27T22:04:52.771Z,19.05
2018-06-27T22:07:22.701Z,19.02
2018-06-27T22:09:53.527Z,18.99
2018-06-27T22:12:23.277Z,18.97
2018-06-27T22:14:53.196Z,18.94
2018-06-27T22:17:22.568Z,18.92
2018-06-27T22:19:54.198Z,18.90
2018-06-27T22:22:23.409Z,18.86
2018-06-27T22:24:53.959Z,18.83
2018-06-27T22:27:23.125Z,18.82
2018-06-27T22:29:53.437Z,18.80
2018-06-27T22:32:24.971Z,18.77
2018-06-27T22:34:55.808Z,18.76
2018-06-27T22:37:25.057Z,18.74
2018-06-27T22:39:56.527Z,18.73
2018-06-27T22:42:26.416Z,18.73
2018-06-27T22:44:58.142Z,18.72
2018-06-27T22:47:29.751Z,18.71
2018-06-27T22:50:00.274Z,18.71
2018-06-27T22:52:33.064Z,18.71
2018-06-27T22:55:02.254Z,18.71
2018-06-27T22:57:34.720Z,18.71
2018-06-27T23:00:05.353Z,18.70
2018-06-27T23:02:36.865Z,18.69
2018-06-27T23:05:06.808Z,18.70
2018-06-27T23:07:36.139Z,18.70
2018-06-27T23:10:07.620Z,18.67
2018-06-27T23:12:39.240Z,18.65
2018-06-27T23:15:11.944Z,18.63
2018-06-27T23:17:41.815Z,18.62
2018-06-27T23:20:11.187Z,18.62
2018-06-27T23:22:46.463Z,18.59
2018-06-27T23:25:16.269Z,18.53
2018-06-27T23:27:46.695Z,18.47
2018-06-27T23:30:16.698Z,18.40
2018-06-27T23:32:47.285Z,18.34
2018-06-27T23:35:19.463Z,18.27
2018-06-27T23:37:48.691Z,18.23
2018-06-27T23:40:19.921Z,18.17
2018-06-27T23:42:49.101Z,18.12
2018-06-27T23:45:20.033Z,18.09
2018-06-27T23:47:49.692Z,18.04
2018-06-27T23:50:20.932Z,17.98
2018-06-27T23:52:51.757Z,17.92
2018-06-27T23:55:23.010Z,17.87
2018-06-27T23:57:54.994Z,17.83
